Meridian, MS (39304)

8:41 PM CDT on July 29, 2015 (GMT -0500)
APRSWXNET | | Change Station
CLOSE
Current Station
Personal Weather Station
Location: Meridian, MS
Elevation: 327 ft
Nearby Weather Stations
Active Advisory: Heat Advisory

Elev 327 ft 32.42 °N, 88.75 °W | Updated 21 minutes ago

Clear
Clear
76 °F
Feels Like 75 °F
N
0
Wind Variable Wind from NNW
Gusts 0.0 mph

Today
High -- | Low -- °F
--% Chance of Precip.
Yesterday
High -- | Low -- °F
Precip. -- in
6:07 AM 7:54 PM
Waxing Gibbous, 97% visible
Pressure 29.98 in
Visibility 10.0 miles
Clouds Clear
Heat Index 75 °F
Dew Point 75 °F
Humidity 96%
Rainfall in
Snow Depth Not available.
UV 0 out of 12
Pollen 3.80 out of 12
Air Quality Not available.
Flu Activity Not available.
METAR KMEI 300058Z 01003KT 10SM CLR 25/22 A2999 RMK AO2 SLP150 T02500222

More Conditions Fewer Conditions

Pressure 29.98 in
Visibility 10.0 miles
Clouds Clear
Heat Index 75 °F
Dew Point 75 °F
Humidity 96%
Rainfall in
Snow Depth Not available.
UV 0 out of 12
Pollen 3.80 out of 12
Air Quality Not available.
Flu Activity Not available.
METAR KMEI 300058Z 01003KT 10SM CLR 25/22 A2999 RMK AO2 SLP150 T02500222

More Conditions Fewer Conditions

10-Day Weather Forecast

×

Almanac

Astronomy

Jul. 29, 2015 Rise Set
Actual Time
Civil Twilight
Nautical Twilight
Astronomical Twilight
Moon
Length of Visible Light
Length of Day
Tomorrow will be .
, % of the Moon is Illuminated

Today's Extremes

State Highs State Lows

Community

WunderPhotos

Upload Photos

1,842,247 photos uploaded!

WunderBlogs® & News

Nearby

Air Quality

  Air Quality AQ Index Pollutant
Not available.

Snow Depth

Station Depth Elevation

Earthquake Activity

City Distance Mag. Time & Date
Minimum magnitude displayed is 2.5.

Coastal Water Temperatures

Place Temperature

Stations

Nearby Weather Stations

Station Location Temp. Windchill Dew Point Humidity Wind Precip. Elev Updated Type
                   
Heat Advisory
Statement as of 8:25 PM CDT on July 29, 2015

... Heat advisory remains in effect until 7 PM CDT Thursday...

* temperatures... peaking from 96 to 100 degrees.

* Heat indices... peaking from 106 to 110 degrees.

* Impacts... increased risk of heat related illnesses including
heat exhaustion and heat stroke.

Precautionary/preparedness actions...

A heat advisory means that a period of hot temperatures is
expected. The combination of high temperatures and humidity will
create a situation in which heat illnesses are possible. Drink
plenty of fluids... stay in an air-conditioned room... stay out of
the sun... and check up on relatives and neighbors. Heat stroke is
an emergency... call 9 1 1.

Young children and pets should never be left unattended in
vehicles under any circumstances. This is especially true during
warm or hot weather when car interiors can reach lethal
temperatures in a matter of minutes.



50